sensor_id;sensor_type;location;lat;lon;timestamp;pressure;altitude;pressure_sealevel;temperature;humidity
77939;BME280;67136;47.546;21.630;2023-08-12T00:02:15;100838.53;;;14.17;87.04
77939;BME280;67136;47.546;21.630;2023-08-12T00:05:18;100847.53;;;14.24;86.60
77939;BME280;67136;47.546;21.630;2023-08-12T00:08:20;100839.59;;;14.15;86.70
77939;BME280;67136;47.546;21.630;2023-08-12T00:11:23;100846.25;;;14.09;86.77
77939;BME280;67136;47.546;21.630;2023-08-12T00:14:26;100841.16;;;14.08;86.47
77939;BME280;67136;47.546;21.630;2023-08-12T00:17:28;100841.53;;;14.03;86.35
77939;BME280;67136;47.546;21.630;2023-08-12T00:20:31;100832.94;;;14.01;86.25
77939;BME280;67136;47.546;21.630;2023-08-12T00:23:37;100836.53;;;14.00;86.02
77939;BME280;67136;47.546;21.630;2023-08-12T00:26:40;100829.34;;;14.02;85.80
77939;BME280;67136;47.546;21.630;2023-08-12T00:29:43;100832.84;;;14.03;85.56
77939;BME280;67136;47.546;21.630;2023-08-12T00:32:46;100829.34;;;14.02;85.44
77939;BME280;67136;47.546;21.630;2023-08-12T00:35:49;100834.50;;;14.13;84.50
77939;BME280;67136;47.546;21.630;2023-08-12T00:38:52;100826.87;;;14.10;84.67
77939;BME280;67136;47.546;21.630;2023-08-12T00:41:54;100834.34;;;14.05;84.63
77939;BME280;67136;47.546;21.630;2023-08-12T00:44:57;100827.69;;;14.01;84.57
77939;BME280;67136;47.546;21.630;2023-08-12T00:48:00;100827.56;;;14.03;84.44
77939;BME280;67136;47.546;21.630;2023-08-12T00:51:03;100815.94;;;14.05;84.17
77939;BME280;67136;47.546;21.630;2023-08-12T00:54:08;100819.97;;;14.09;83.54
77939;BME280;67136;47.546;21.630;2023-08-12T00:57:12;100815.66;;;14.08;83.84
77939;BME280;67136;47.546;21.630;2023-08-12T01:00:16;100811.66;;;14.04;83.73
77939;BME280;67136;47.546;21.630;2023-08-12T01:03:20;100818.75;;;14.23;83.04
77939;BME280;67136;47.546;21.630;2023-08-12T01:06:23;100811.66;;;14.14;83.10
77939;BME280;67136;47.546;21.630;2023-08-12T01:09:26;100808.88;;;14.06;83.34
77939;BME280;67136;47.546;21.630;2023-08-12T01:12:34;100815.22;;;14.03;83.32
77939;BME280;67136;47.546;21.630;2023-08-12T01:15:40;100811.38;;;13.98;83.60
77939;BME280;67136;47.546;21.630;2023-08-12T01:18:44;100808.31;;;13.93;83.90
77939;BME280;67136;47.546;21.630;2023-08-12T01:21:49;100814.38;;;13.93;83.74
77939;BME280;67136;47.546;21.630;2023-08-12T01:24:55;100810.09;;;13.92;83.56
77939;BME280;67136;47.546;21.630;2023-08-12T01:27:57;100816.44;;;13.90;83.55
77939;BME280;67136;47.546;21.630;2023-08-12T01:34:26;100816.31;;;13.91;83.10
77939;BME280;67136;47.546;21.630;2023-08-12T01:37:33;100815.94;;;14.05;82.14
77939;BME280;67136;47.546;21.630;2023-08-12T01:40:39;100822.47;;;14.11;81.45
77939;BME280;67136;47.546;21.630;2023-08-12T01:43:43;100818.84;;;14.12;81.26
77939;BME280;67136;47.546;21.630;2023-08-12T01:46:45;100814.16;;;14.06;81.46
77939;BME280;67136;47.546;21.630;2023-08-12T01:49:48;100823.81;;;14.05;81.40
77939;BME280;67136;47.546;21.630;2023-08-12T01:52:51;100822.16;;;14.04;81.34
77939;BME280;67136;47.546;21.630;2023-08-12T01:55:54;100827.56;;;14.12;80.98
77939;BME280;67136;47.546;21.630;2023-08-12T01:58:56;100828.00;;;14.17;80.36
77939;BME280;67136;47.546;21.630;2023-08-12T02:02:00;100826.34;;;14.16;80.17
77939;BME280;67136;47.546;21.630;2023-08-12T02:05:03;100828.00;;;14.17;79.71
77939;BME280;67136;47.546;21.630;2023-08-12T02:08:05;100821.91;;;14.17;80.40
77939;BME280;67136;47.546;21.630;2023-08-12T02:11:09;100828.84;;;14.18;79.89
77939;BME280;67136;47.546;21.630;2023-08-12T02:14:13;100832.97;;;14.20;79.54
77939;BME280;67136;47.546;21.630;2023-08-12T02:17:16;100831.38;;;14.29;79.23
77939;BME280;67136;47.546;21.630;2023-08-12T02:20:19;100833.00;;;14.30;79.16
77939;BME280;67136;47.546;21.630;2023-08-12T02:23:21;100841.84;;;14.19;79.41
77939;BME280;67136;47.546;21.630;2023-08-12T02:26:24;100843.22;;;14.23;79.83
77939;BME280;67136;47.546;21.630;2023-08-12T02:29:26;100836.03;;;14.16;79.89
77939;BME280;67136;47.546;21.630;2023-08-12T02:32:30;100839.03;;;14.02;80.18
77939;BME280;67136;47.546;21.630;2023-08-12T02:35:32;100849.03;;;14.08;79.88
77939;BME280;67136;47.546;21.630;2023-08-12T02:38:38;100837.94;;;14.04;80.69
77939;BME280;67136;47.546;21.630;2023-08-12T02:41:40;100837.94;;;14.04;80.39
77939;BME280;67136;47.546;21.630;2023-08-12T02:44:43;100838.47;;;13.98;80.57
77939;BME280;67136;47.546;21.630;2023-08-12T02:47:45;100837.53;;;13.99;80.66
77939;BME280;67136;47.546;21.630;2023-08-12T02:50:48;100839.44;;;13.97;81.25
77939;BME280;67136;47.546;21.630;2023-08-12T02:53:51;100837.34;;;13.91;81.19
77939;BME280;67136;47.546;21.630;2023-08-12T02:56:54;100839.28;;;13.89;81.15
77939;BME280;67136;47.546;21.630;2023-08-12T02:59:56;100839.81;;;13.83;81.54
77939;BME280;67136;47.546;21.630;2023-08-12T03:02:59;100838.00;;;13.74;81.99
77939;BME280;67136;47.546;21.630;2023-08-12T03:06:02;100834.94;;;13.69;82.20
77939;BME280;67136;47.546;21.630;2023-08-12T03:09:05;100838.66;;;13.66;82.67
77939;BME280;67136;47.546;21.630;2023-08-12T03:12:07;100841.69;;;13.62;82.89
77939;BME280;67136;47.546;21.630;2023-08-12T03:15:10;100838.34;;;13.60;82.92
77939;BME280;67136;47.546;21.630;2023-08-12T03:18:13;100836.28;;;13.54;82.85
77939;BME280;67136;47.546;21.630;2023-08-12T03:21:16;100833.63;;;13.54;83.14
77939;BME280;67136;47.546;21.630;2023-08-12T03:24:18;100844.22;;;13.43;83.32
77939;BME280;67136;47.546;21.630;2023-08-12T03:27:22;100838.69;;;13.46;83.86
77939;BME280;67136;47.546;21.630;2023-08-12T03:30:25;100839.53;;;13.46;83.79
77939;BME280;67136;47.546;21.630;2023-08-12T03:33:28;100839.94;;;13.42;83.62
77939;BME280;67136;47.546;21.630;2023-08-12T03:36:31;100840.72;;;13.33;83.75
77939;BME280;67136;47.546;21.630;2023-08-12T03:39:34;100840.72;;;13.33;84.14
77939;BME280;67136;47.546;21.630;2023-08-12T03:42:36;100840.97;;;13.30;84.13
77939;BME280;67136;47.546;21.630;2023-08-12T03:45:40;100838.09;;;13.33;85.01
77939;BME280;67136;47.546;21.630;2023-08-12T03:48:44;100844.03;;;13.35;84.25
77939;BME280;67136;47.546;21.630;2023-08-12T03:51:47;100843.00;;;13.47;83.81
77939;BME280;67136;47.546;21.630;2023-08-12T03:54:50;100848.25;;;13.47;83.50
77939;BME280;67136;47.546;21.630;2023-08-12T03:57:53;100844.66;;;13.48;83.20
77939;BME280;67136;47.546;21.630;2023-08-12T04:00:55;100845.22;;;13.51;83.38
77939;BME280;67136;47.546;21.630;2023-08-12T04:03:58;100843.72;;;13.49;83.44
77939;BME280;67136;47.546;21.630;2023-08-12T04:07:00;100848.13;;;13.48;83.56
77939;BME280;67136;47.546;21.630;2023-08-12T04:10:03;100853.25;;;13.50;83.70
77939;BME280;67136;47.546;21.630;2023-08-12T04:13:06;100848.28;;;13.56;83.73
77939;BME280;67136;47.546;21.630;2023-08-12T04:16:09;100851.09;;;13.64;83.53
77939;BME280;67136;47.546;21.630;2023-08-12T04:19:11;100853.22;;;13.80;82.58
77939;BME280;67136;47.546;21.630;2023-08-12T04:22:15;100863.38;;;13.94;82.00
77939;BME280;67136;47.546;21.630;2023-08-12T04:25:19;100859.94;;;14.03;81.31
77939;BME280;67136;47.546;21.630;2023-08-12T04:28:21;100866.75;;;14.15;80.83
77939;BME280;67136;47.546;21.630;2023-08-12T04:31:24;100868.47;;;14.26;80.28
77939;BME280;67136;47.546;21.630;2023-08-12T04:34:27;100870.41;;;14.33;79.88
77939;BME280;67136;47.546;21.630;2023-08-12T04:37:30;100875.00;;;14.41;79.49
77939;BME280;67136;47.546;21.630;2023-08-12T04:40:38;100873.63;;;14.46;79.43
77939;BME280;67136;47.546;21.630;2023-08-12T04:43:41;100873.50;;;14.57;78.90
77939;BME280;67136;47.546;21.630;2023-08-12T04:46:46;100869.06;;;14.67;78.60
77939;BME280;67136;47.546;21.630;2023-08-12T04:49:50;100870.87;;;14.76;78.22
77939;BME280;67136;47.546;21.630;2023-08-12T04:52:53;100876.28;;;14.84;78.00
77939;BME280;67136;47.546;21.630;2023-08-12T04:55:56;100873.50;;;15.05;77.11
77939;BME280;67136;47.546;21.630;2023-08-12T04:58:59;100872.47;;;15.16;76.63
77939;BME280;67136;47.546;21.630;2023-08-12T05:02:02;100874.28;;;15.25;76.51
77939;BME280;67136;47.546;21.630;2023-08-12T05:05:07;100874.78;;;15.38;76.21
77939;BME280;67136;47.546;21.630;2023-08-12T05:08:10;100877.56;;;15.46;76.01
77939;BME280;67136;47.546;21.630;2023-08-12T05:11:13;100885.56;;;15.63;75.68
77939;BME280;67136;47.546;21.630;2023-08-12T05:14:16;100889.56;;;15.77;75.25
77939;BME280;67136;47.546;21.630;2023-08-12T05:17:19;100888.78;;;15.94;74.60
77939;BME280;67136;47.546;21.630;2023-08-12T05:20:21;100885.66;;;16.08;74.10
77939;BME280;67136;47.546;21.630;2023-08-12T05:23:24;100884.84;;;16.25;73.64
77939;BME280;67136;47.546;21.630;2023-08-12T05:26:27;100884.44;;;16.30;73.87
77939;BME280;67136;47.546;21.630;2023-08-12T05:29:30;100890.19;;;16.43;73.74
77939;BME280;67136;47.546;21.630;2023-08-12T05:32:33;100891.78;;;16.53;73.40
77939;BME280;67136;47.546;21.630;2023-08-12T05:35:36;100887.25;;;16.63;73.34
77939;BME280;67136;47.546;21.630;2023-08-12T05:38:38;100901.31;;;16.81;72.67
77939;BME280;67136;47.546;21.630;2023-08-12T05:41:41;100896.47;;;16.94;72.70
77939;BME280;67136;47.546;21.630;2023-08-12T05:44:44;100895.25;;;17.06;72.37
77939;BME280;67136;47.546;21.630;2023-08-12T05:47:47;100893.03;;;17.19;71.56
77939;BME280;67136;47.546;21.630;2023-08-12T05:50:49;100893.50;;;17.40;70.95
77939;BME280;67136;47.546;21.630;2023-08-12T05:53:52;100896.31;;;17.57;70.55
77939;BME280;67136;47.546;21.630;2023-08-12T05:56:54;100896.09;;;17.76;70.04
77939;BME280;67136;47.546;21.630;2023-08-12T05:59:57;100890.87;;;18.00;68.70
77939;BME280;67136;47.546;21.630;2023-08-12T06:03:00;100887.59;;;18.47;66.98
77939;BME280;67136;47.546;21.630;2023-08-12T06:06:03;100892.78;;;19.05;65.09
77939;BME280;67136;47.546;21.630;2023-08-12T06:09:05;100896.34;;;19.76;62.64
77939;BME280;67136;47.546;21.630;2023-08-12T06:12:08;100893.63;;;19.93;62.05
77939;BME280;67136;47.546;21.630;2023-08-12T06:15:11;100897.78;;;19.95;61.82
77939;BME280;67136;47.546;21.630;2023-08-12T06:18:14;100893.56;;;20.09;61.63
77939;BME280;67136;47.546;21.630;2023-08-12T06:21:16;100897.72;;;20.19;61.17
77939;BME280;67136;47.546;21.630;2023-08-12T06:24:19;100902.56;;;20.38;60.13
77939;BME280;67136;47.546;21.630;2023-08-12T06:27:22;100899.31;;;20.81;57.56
77939;BME280;67136;47.546;21.630;2023-08-12T06:30:25;100902.03;;;21.85;55.27
77939;BME280;67136;47.546;21.630;2023-08-12T06:33:27;100893.84;;;22.15;53.82
77939;BME280;67136;47.546;21.630;2023-08-12T06:36:30;100901.69;;;22.74;52.17
77939;BME280;67136;47.546;21.630;2023-08-12T06:39:32;100896.69;;;23.55;51.10
77939;BME280;67136;47.546;21.630;2023-08-12T06:42:35;100889.91;;;23.59;49.56
77939;BME280;67136;47.546;21.630;2023-08-12T06:45:39;100898.37;;;23.69;49.79
77939;BME280;67136;47.546;21.630;2023-08-12T06:48:41;100892.97;;;23.07;51.31
77939;BME280;67136;47.546;21.630;2023-08-12T06:51:44;100900.97;;;22.80;51.79
77939;BME280;67136;47.546;21.630;2023-08-12T06:54:47;100900.34;;;22.63;52.27
77939;BME280;67136;47.546;21.630;2023-08-12T06:57:49;100888.34;;;22.53;52.06
77939;BME280;67136;47.546;21.630;2023-08-12T07:00:52;100890.06;;;22.10;53.46
77939;BME280;67136;47.546;21.630;2023-08-12T07:03:55;100900.91;;;22.08;53.38
77939;BME280;67136;47.546;21.630;2023-08-12T07:06:59;100893.53;;;22.25;53.03
77939;BME280;67136;47.546;21.630;2023-08-12T07:10:01;100899.84;;;22.39;52.75
77939;BME280;67136;47.546;21.630;2023-08-12T07:13:04;100891.22;;;22.37;53.71
77939;BME280;67136;47.546;21.630;2023-08-12T07:16:07;100890.09;;;22.46;53.04
77939;BME280;67136;47.546;21.630;2023-08-12T07:19:10;100887.84;;;22.64;52.64
77939;BME280;67136;47.546;21.630;2023-08-12T07:22:16;100890.53;;;22.85;51.94
77939;BME280;67136;47.546;21.630;2023-08-12T07:25:21;100890.50;;;23.06;50.79
77939;BME280;67136;47.546;21.630;2023-08-12T07:28:24;100889.50;;;23.28;48.89
77939;BME280;67136;47.546;21.630;2023-08-12T07:31:27;100891.41;;;23.13;47.51
77939;BME280;67136;47.546;21.630;2023-08-12T07:34:29;100892.00;;;23.36;47.03
77939;BME280;67136;47.546;21.630;2023-08-12T07:37:33;100894.53;;;23.44;46.88
77939;BME280;67136;47.546;21.630;2023-08-12T07:40:35;100883.47;;;23.81;46.21
77939;BME280;67136;47.546;21.630;2023-08-12T07:43:42;100889.06;;;23.93;44.75
77939;BME280;67136;47.546;21.630;2023-08-12T07:46:45;100880.63;;;23.89;44.75
77939;BME280;67136;47.546;21.630;2023-08-12T07:49:48;100884.41;;;24.62;43.98
77939;BME280;67136;47.546;21.630;2023-08-12T07:52:50;100886.50;;;25.64;42.09
77939;BME280;67136;47.546;21.630;2023-08-12T07:55:54;100885.13;;;26.19;41.03
77939;BME280;67136;47.546;21.630;2023-08-12T07:58:56;100876.84;;;26.96;39.37
77939;BME280;67136;47.546;21.630;2023-08-12T08:01:59;100880.16;;;27.83;38.00
77939;BME280;67136;47.546;21.630;2023-08-12T08:05:02;100874.50;;;28.39;37.01
77939;BME280;67136;47.546;21.630;2023-08-12T08:08:05;100885.44;;;30.23;34.52
77939;BME280;67136;47.546;21.630;2023-08-12T08:11:08;100889.47;;;29.98;32.87
77939;BME280;67136;47.546;21.630;2023-08-12T08:14:10;100884.00;;;31.38;29.63
77939;BME280;67136;47.546;21.630;2023-08-12T08:17:13;100882.22;;;32.84;28.25
77939;BME280;67136;47.546;21.630;2023-08-12T08:20:16;100881.19;;;32.85;27.99
77939;BME280;67136;47.546;21.630;2023-08-12T08:23:18;100889.88;;;33.55;27.83
77939;BME280;67136;47.546;21.630;2023-08-12T08:26:21;100881.97;;;33.95;26.52
77939;BME280;67136;47.546;21.630;2023-08-12T08:29:23;100885.44;;;33.85;25.54
77939;BME280;67136;47.546;21.630;2023-08-12T08:32:26;100866.88;;;32.62;27.21
77939;BME280;67136;47.546;21.630;2023-08-12T08:35:29;100873.72;;;34.42;25.30
77939;BME280;67136;47.546;21.630;2023-08-12T08:38:32;100872.66;;;35.33;24.70
77939;BME280;67136;47.546;21.630;2023-08-12T08:41:39;100869.09;;;36.65;23.55
77939;BME280;67136;47.546;21.630;2023-08-12T08:44:42;100871.66;;;36.03;23.86
77939;BME280;67136;47.546;21.630;2023-08-12T08:47:46;100864.00;;;36.54;23.52
77939;BME280;67136;47.546;21.630;2023-08-12T08:50:50;100864.88;;;36.00;22.76
77939;BME280;67136;47.546;21.630;2023-08-12T08:53:54;100863.00;;;35.86;23.22
77939;BME280;67136;47.546;21.630;2023-08-12T08:57:03;100866.38;;;37.56;21.36
77939;BME280;67136;47.546;21.630;2023-08-12T09:00:17;100853.63;;;37.75;20.76
77939;BME280;67136;47.546;21.630;2023-08-12T09:03:20;100858.81;;;36.57;21.49
77939;BME280;67136;47.546;21.630;2023-08-12T09:06:25;100857.97;;;37.24;20.82
77939;BME280;67136;47.546;21.630;2023-08-12T09:09:28;100852.44;;;37.81;19.94
77939;BME280;67136;47.546;21.630;2023-08-12T09:12:31;100853.75;;;38.44;19.44
77939;BME280;67136;47.546;21.630;2023-08-12T09:15:35;100840.44;;;38.75;18.60
77939;BME280;67136;47.546;21.630;2023-08-12T09:18:37;100841.59;;;37.24;20.02
77939;BME280;67136;47.546;21.630;2023-08-12T09:21:41;100839.03;;;37.09;20.34
77939;BME280;67136;47.546;21.630;2023-08-12T09:24:44;100839.19;;;36.11;21.69
77939;BME280;67136;47.546;21.630;2023-08-12T09:27:47;100834.75;;;37.31;18.74
77939;BME280;67136;47.546;21.630;2023-08-12T09:30:50;100838.16;;;37.42;17.80
77939;BME280;67136;47.546;21.630;2023-08-12T09:34:00;100831.78;;;37.28;18.82
77939;BME280;67136;47.546;21.630;2023-08-12T09:37:06;100822.28;;;38.66;18.14
77939;BME280;67136;47.546;21.630;2023-08-12T09:40:09;100831.84;;;37.70;19.02
77939;BME280;67136;47.546;21.630;2023-08-12T09:43:11;100830.53;;;37.39;18.72
77939;BME280;67136;47.546;21.630;2023-08-12T09:46:15;100825.44;;;36.70;19.33
77939;BME280;67136;47.546;21.630;2023-08-12T09:49:18;100833.19;;;37.91;17.83
77939;BME280;67136;47.546;21.630;2023-08-12T09:52:22;100827.41;;;38.16;17.95
77939;BME280;67136;47.546;21.630;2023-08-12T09:55:25;100819.78;;;38.13;18.03
77939;BME280;67136;47.546;21.630;2023-08-12T09:58:29;100821.78;;;38.64;17.54
77939;BME280;67136;47.546;21.630;2023-08-12T10:01:33;100819.31;;;37.64;17.97
77939;BME280;67136;47.546;21.630;2023-08-12T10:04:39;100805.16;;;38.41;17.65
77939;BME280;67136;47.546;21.630;2023-08-12T10:07:43;100807.56;;;38.62;17.13
77939;BME280;67136;47.546;21.630;2023-08-12T10:10:48;100815.03;;;39.75;16.42
77939;BME280;67136;47.546;21.630;2023-08-12T10:14:12;100804.97;;;40.19;15.77
77939;BME280;67136;47.546;21.630;2023-08-12T10:17:15;100803.78;;;39.62;16.19
77939;BME280;67136;47.546;21.630;2023-08-12T10:20:38;100803.88;;;39.44;16.56
77939;BME280;67136;47.546;21.630;2023-08-12T10:23:41;100801.12;;;39.17;17.14
77939;BME280;67136;47.546;21.630;2023-08-12T10:26:49;100798.94;;;41.28;15.94
77939;BME280;67136;47.546;21.630;2023-08-12T10:29:56;100790.09;;;40.47;16.28
77939;BME280;67136;47.546;21.630;2023-08-12T10:32:59;100792.44;;;40.85;16.28
77939;BME280;67136;47.546;21.630;2023-08-12T10:36:03;100792.78;;;40.92;16.41
77939;BME280;67136;47.546;21.630;2023-08-12T10:39:08;100784.56;;;40.25;16.48
77939;BME280;67136;47.546;21.630;2023-08-12T10:42:12;100777.81;;;39.60;16.64
77939;BME280;67136;47.546;21.630;2023-08-12T10:45:17;100777.47;;;40.99;15.79
77939;BME280;67136;47.546;21.630;2023-08-12T10:48:24;100778.91;;;39.73;16.25
77939;BME280;67136;47.546;21.630;2023-08-12T10:51:50;100780.72;;;40.48;15.74
77939;BME280;67136;47.546;21.630;2023-08-12T10:54:54;100782.81;;;40.29;15.77
77939;BME280;67136;47.546;21.630;2023-08-12T10:57:58;100773.50;;;40.30;15.75
77939;BME280;67136;47.546;21.630;2023-08-12T11:01:00;100780.22;;;40.99;15.73
77939;BME280;67136;47.546;21.630;2023-08-12T11:04:16;100773.50;;;40.74;15.98
77939;BME280;67136;47.546;21.630;2023-08-12T11:07:21;100780.19;;;41.94;15.21
77939;BME280;67136;47.546;21.630;2023-08-12T11:10:25;100770.34;;;40.67;16.38
77939;BME280;67136;47.546;21.630;2023-08-12T11:13:28;100762.06;;;40.81;16.14
77939;BME280;67136;47.546;21.630;2023-08-12T11:16:42;100767.09;;;39.99;15.87
77939;BME280;67136;47.546;21.630;2023-08-12T11:19:46;100757.22;;;42.50;14.56
77939;BME280;67136;47.546;21.630;2023-08-12T11:22:50;100752.22;;;42.52;14.72
77939;BME280;67136;47.546;21.630;2023-08-12T11:25:52;100754.94;;;41.58;15.15
77939;BME280;67136;47.546;21.630;2023-08-12T11:28:55;100745.97;;;41.36;15.50
77939;BME280;67136;47.546;21.630;2023-08-12T11:31:58;100745.34;;;40.25;16.00
77939;BME280;67136;47.546;21.630;2023-08-12T11:35:01;100741.81;;;40.24;16.00
77939;BME280;67136;47.546;21.630;2023-08-12T11:38:05;100742.63;;;39.53;16.18
77939;BME280;67136;47.546;21.630;2023-08-12T11:41:07;100740.81;;;40.20;15.45
77939;BME280;67136;47.546;21.630;2023-08-12T11:44:17;100741.22;;;40.58;15.22
77939;BME280;67136;47.546;21.630;2023-08-12T11:47:23;100738.63;;;41.62;14.65
77939;BME280;67136;47.546;21.630;2023-08-12T11:50:27;100735.41;;;41.60;14.43
77939;BME280;67136;47.546;21.630;2023-08-12T11:53:29;100732.88;;;41.24;15.06
77939;BME280;67136;47.546;21.630;2023-08-12T11:56:33;100731.69;;;40.78;15.61
77939;BME280;67136;47.546;21.630;2023-08-12T11:59:36;100728.19;;;40.63;15.65
77939;BME280;67136;47.546;21.630;2023-08-12T12:02:53;100715.75;;;39.91;15.69
77939;BME280;67136;47.546;21.630;2023-08-12T12:05:57;100715.78;;;40.35;15.53
77939;BME280;67136;47.546;21.630;2023-08-12T12:09:01;100720.00;;;39.97;16.09
77939;BME280;67136;47.546;21.630;2023-08-12T12:12:10;100717.41;;;40.98;15.18
77939;BME280;67136;47.546;21.630;2023-08-12T12:15:14;100716.78;;;41.01;15.10
77939;BME280;67136;47.546;21.630;2023-08-12T12:18:19;100717.81;;;41.22;14.97
77939;BME280;67136;47.546;21.630;2023-08-12T12:21:22;100711.63;;;39.04;16.44
77939;BME280;67136;47.546;21.630;2023-08-12T12:24:29;100707.50;;;39.42;16.34
77939;BME280;67136;47.546;21.630;2023-08-12T12:27:31;100704.59;;;38.98;16.97
77939;BME280;67136;47.546;21.630;2023-08-12T12:30:34;100706.72;;;39.01;17.36
77939;BME280;67136;47.546;21.630;2023-08-12T12:33:38;100691.50;;;38.03;17.52
77939;BME280;67136;47.546;21.630;2023-08-12T12:36:41;100692.53;;;38.99;17.10
77939;BME280;67136;47.546;21.630;2023-08-12T12:39:44;100701.03;;;38.84;17.05
77939;BME280;67136;47.546;21.630;2023-08-12T12:42:48;100694.06;;;39.81;16.56
77939;BME280;67136;47.546;21.630;2023-08-12T12:45:50;100699.47;;;41.48;15.22
77939;BME280;67136;47.546;21.630;2023-08-12T12:48:53;100699.59;;;40.87;15.35
77939;BME280;67136;47.546;21.630;2023-08-12T12:51:56;100696.06;;;40.55;14.94
77939;BME280;67136;47.546;21.630;2023-08-12T12:54:58;100689.91;;;39.34;16.33
77939;BME280;67136;47.546;21.630;2023-08-12T12:58:03;100689.62;;;40.07;15.76
77939;BME280;67136;47.546;21.630;2023-08-12T13:01:05;100689.91;;;38.80;16.31
77939;BME280;67136;47.546;21.630;2023-08-12T13:04:09;100683.72;;;39.29;16.45
77939;BME280;67136;47.546;21.630;2023-08-12T13:07:12;100683.38;;;38.49;17.00
77939;BME280;67136;47.546;21.630;2023-08-12T13:10:14;100674.31;;;39.08;16.57
77939;BME280;67136;47.546;21.630;2023-08-12T13:13:17;100672.75;;;39.78;16.04
77939;BME280;67136;47.546;21.630;2023-08-12T13:16:20;100680.38;;;40.25;15.80
77939;BME280;67136;47.546;21.630;2023-08-12T13:19:23;100673.59;;;40.75;15.31
77939;BME280;67136;47.546;21.630;2023-08-12T13:22:26;100672.75;;;39.78;15.95
77939;BME280;67136;47.546;21.630;2023-08-12T13:25:30;100676.56;;;36.98;18.12
77939;BME280;67136;47.546;21.630;2023-08-12T13:28:33;100664.78;;;39.19;16.42
77939;BME280;67136;47.546;21.630;2023-08-12T13:31:36;100668.72;;;40.20;15.73
77939;BME280;67136;47.546;21.630;2023-08-12T13:34:39;100665.13;;;38.58;17.41
77939;BME280;67136;47.546;21.630;2023-08-12T13:37:42;100665.09;;;39.67;16.52
77939;BME280;67136;47.546;21.630;2023-08-12T13:40:44;100670.00;;;40.44;15.44
77939;BME280;67136;47.546;21.630;2023-08-12T13:43:47;100664.69;;;39.95;16.09
77939;BME280;67136;47.546;21.630;2023-08-12T13:46:49;100663.94;;;39.32;16.49
77939;BME280;67136;47.546;21.630;2023-08-12T13:49:52;100660.94;;;38.93;17.04
77939;BME280;67136;47.546;21.630;2023-08-12T13:52:55;100649.12;;;38.51;17.21
77939;BME280;67136;47.546;21.630;2023-08-12T13:55:58;100652.97;;;39.32;16.81
77939;BME280;67136;47.546;21.630;2023-08-12T13:59:00;100657.50;;;39.14;16.83
77939;BME280;67136;47.546;21.630;2023-08-12T14:02:03;100644.19;;;37.52;18.01
77939;BME280;67136;47.546;21.630;2023-08-12T14:05:06;100649.16;;;38.79;16.92
77939;BME280;67136;47.546;21.630;2023-08-12T14:08:09;100650.06;;;37.22;18.40
77939;BME280;67136;47.546;21.630;2023-08-12T14:11:12;100656.72;;;36.40;18.95
77939;BME280;67136;47.546;21.630;2023-08-12T14:14:15;100652.59;;;36.66;18.47
77939;BME280;67136;47.546;21.630;2023-08-12T14:17:17;100646.06;;;37.38;18.12
77939;BME280;67136;47.546;21.630;2023-08-12T14:20:20;100649.72;;;36.58;19.25
77939;BME280;67136;47.546;21.630;2023-08-12T14:23:23;100641.19;;;35.68;19.64
77939;BME280;67136;47.546;21.630;2023-08-12T14:26:26;100641.28;;;35.97;19.67
77939;BME280;67136;47.546;21.630;2023-08-12T14:29:29;100642.94;;;37.02;19.07
77939;BME280;67136;47.546;21.630;2023-08-12T14:32:32;100640.56;;;36.49;19.40
77939;BME280;67136;47.546;21.630;2023-08-12T14:35:35;100632.16;;;36.11;19.97
77939;BME280;67136;47.546;21.630;2023-08-12T14:38:38;100629.03;;;35.02;20.72
77939;BME280;67136;47.546;21.630;2023-08-12T14:41:40;100639.31;;;36.31;19.04
77939;BME280;67136;47.546;21.630;2023-08-12T14:44:43;100634.97;;;36.30;19.36
77939;BME280;67136;47.546;21.630;2023-08-12T14:47:46;100631.25;;;36.50;19.24
77939;BME280;67136;47.546;21.630;2023-08-12T14:50:48;100632.56;;;36.29;19.52
77939;BME280;67136;47.546;21.630;2023-08-12T14:53:51;100634.81;;;36.74;19.33
77939;BME280;67136;47.546;21.630;2023-08-12T14:56:53;100631.69;;;36.62;19.37
77939;BME280;67136;47.546;21.630;2023-08-12T14:59:56;100622.56;;;34.83;21.21
77939;BME280;67136;47.546;21.630;2023-08-12T15:02:59;100617.78;;;34.25;21.52
77939;BME280;67136;47.546;21.630;2023-08-12T15:06:03;100615.09;;;34.00;21.71
77939;BME280;67136;47.546;21.630;2023-08-12T15:09:06;100611.78;;;33.67;22.64
77939;BME280;67136;47.546;21.630;2023-08-12T15:12:09;100611.50;;;33.64;22.56
77939;BME280;67136;47.546;21.630;2023-08-12T15:15:12;100611.16;;;33.35;22.99
77939;BME280;67136;47.546;21.630;2023-08-12T15:18:14;100606.72;;;32.11;24.93
77939;BME280;67136;47.546;21.630;2023-08-12T15:21:17;100617.06;;;31.60;25.61
77939;BME280;67136;47.546;21.630;2023-08-12T15:24:19;100608.41;;;30.89;26.39
77939;BME280;67136;47.546;21.630;2023-08-12T15:27:22;100607.59;;;29.67;28.27
77939;BME280;67136;47.546;21.630;2023-08-12T15:30:25;100611.28;;;29.94;27.53
77939;BME280;67136;47.546;21.630;2023-08-12T15:33:28;100603.88;;;29.57;27.54
77939;BME280;67136;47.546;21.630;2023-08-12T15:36:31;100591.84;;;29.48;27.61
77939;BME280;67136;47.546;21.630;2023-08-12T15:39:34;100601.47;;;28.53;29.71
77939;BME280;67136;47.546;21.630;2023-08-12T15:42:37;100587.88;;;28.71;29.41
77939;BME280;67136;47.546;21.630;2023-08-12T15:45:39;100593.03;;;28.49;29.90
77939;BME280;67136;47.546;21.630;2023-08-12T15:48:44;100608.47;;;28.31;30.92
77939;BME280;67136;47.546;21.630;2023-08-12T15:51:46;100599.22;;;28.15;30.49